createdAt,value
2023-05-05T00:01:27.696Z,8.63
2023-05-05T00:03:09.066Z,8.69
2023-05-05T00:04:50.422Z,8.48
2023-05-05T00:06:31.774Z,8.87
2023-05-05T00:08:13.077Z,8.86
2023-05-05T00:09:54.349Z,8.85
2023-05-05T00:11:35.618Z,9.06
2023-05-05T00:13:16.938Z,9.00
2023-05-05T00:14:58.230Z,8.80
2023-05-05T00:16:39.618Z,8.71
2023-05-05T00:18:20.956Z,8.22
2023-05-05T00:20:02.235Z,8.57
2023-05-05T00:21:43.523Z,8.43
2023-05-05T00:23:24.852Z,8.54
2023-05-05T00:25:06.159Z,9.06
2023-05-05T00:26:47.452Z,8.79
2023-05-05T00:28:28.756Z,8.44
2023-05-05T00:30:10.231Z,8.53
2023-05-05T00:31:51.610Z,8.15
2023-05-05T00:33:32.900Z,8.27
2023-05-05T00:35:14.180Z,8.61
2023-05-05T00:36:55.495Z,8.86
2023-05-05T00:38:36.784Z,8.72
2023-05-05T00:40:18.064Z,8.69
2023-05-05T00:41:59.378Z,8.93
2023-05-05T00:43:40.697Z,9.12
2023-05-05T00:45:22.029Z,9.00
2023-05-05T00:47:03.310Z,9.34
2023-05-05T00:48:44.634Z,9.03
2023-05-05T00:50:25.999Z,8.86
2023-05-05T00:52:07.386Z,8.85
2023-05-05T00:53:48.736Z,8.81
2023-05-05T00:55:30.099Z,8.68
2023-05-05T00:57:11.439Z,8.46
2023-05-05T00:58:52.701Z,8.46
2023-05-05T01:00:33.992Z,8.63
2023-05-05T01:02:15.333Z,8.91
2023-05-05T01:03:56.771Z,8.63
2023-05-05T01:05:38.129Z,9.05
2023-05-05T01:07:19.444Z,9.26
2023-05-05T01:09:00.744Z,9.46
2023-05-05T01:10:42.050Z,9.52
2023-05-05T01:12:23.409Z,9.44
2023-05-05T01:14:04.704Z,8.97
2023-05-05T01:15:46.015Z,9.00
2023-05-05T01:17:27.343Z,8.97
2023-05-05T01:19:08.686Z,8.87
2023-05-05T01:20:50.015Z,9.16
2023-05-05T01:22:31.309Z,8.73
2023-05-05T01:24:12.600Z,8.97
2023-05-05T01:25:53.911Z,8.80
2023-05-05T01:27:35.219Z,8.80
2023-05-05T01:29:16.507Z,9.14
2023-05-05T01:30:57.785Z,9.24
2023-05-05T01:32:39.127Z,8.62
2023-05-05T01:34:20.457Z,8.72
2023-05-05T01:36:01.701Z,8.47
2023-05-05T01:37:43.003Z,8.82
2023-05-05T01:39:24.306Z,8.87
2023-05-05T01:41:05.608Z,9.04
2023-05-05T01:42:46.922Z,8.60
2023-05-05T01:44:28.211Z,8.46
2023-05-05T01:46:09.548Z,8.28
2023-05-05T01:47:50.986Z,8.64
2023-05-05T01:49:32.352Z,8.54
2023-05-05T01:51:13.632Z,8.61
2023-05-05T01:52:54.989Z,8.80
2023-05-05T01:54:36.307Z,9.05
2023-05-05T01:56:17.613Z,8.83
2023-05-05T01:57:58.861Z,8.46
2023-05-05T01:59:40.156Z,8.25
2023-05-05T02:01:21.547Z,8.32
2023-05-05T02:03:03.021Z,8.68
2023-05-05T02:04:44.426Z,8.32
2023-05-05T02:06:25.729Z,8.42
2023-05-05T02:08:07.000Z,8.60
2023-05-05T02:09:48.287Z,8.50
2023-05-05T02:11:29.629Z,8.15
2023-05-05T02:13:11.047Z,8.39
2023-05-05T02:14:52.424Z,8.25
2023-05-05T02:16:33.707Z,7.98
2023-05-05T02:18:14.994Z,7.91
2023-05-05T02:19:56.268Z,7.77
2023-05-05T02:21:37.620Z,7.44
2023-05-05T02:23:18.930Z,7.66
2023-05-05T02:25:00.206Z,7.33
2023-05-05T02:26:41.507Z,7.40
2023-05-05T02:28:22.762Z,7.82
2023-05-05T02:30:04.070Z,8.12
2023-05-05T02:31:45.399Z,7.98
2023-05-05T02:33:26.767Z,7.96
2023-05-05T02:35:08.070Z,7.98
2023-05-05T02:36:49.348Z,8.14
2023-05-05T02:38:30.629Z,8.33
2023-05-05T02:40:11.951Z,8.08
2023-05-05T02:41:53.222Z,8.51
2023-05-05T02:43:34.535Z,8.85
2023-05-05T02:45:15.838Z,8.94
2023-05-05T02:46:57.131Z,9.07
2023-05-05T02:48:38.436Z,9.31
2023-05-05T02:50:19.732Z,9.45
2023-05-05T02:52:01.015Z,9.46
2023-05-05T02:53:42.290Z,9.56
2023-05-05T02:55:23.598Z,9.48
2023-05-05T02:57:04.863Z,9.41
2023-05-05T02:58:46.169Z,9.25
2023-05-05T03:00:27.453Z,9.13
2023-05-05T03:02:08.769Z,8.89
2023-05-05T03:03:50.239Z,8.63
2023-05-05T03:05:31.656Z,8.35
2023-05-05T03:07:12.962Z,7.85
2023-05-05T03:08:54.233Z,7.73
2023-05-05T03:10:35.555Z,7.96
2023-05-05T03:12:16.836Z,8.39
2023-05-05T03:13:58.129Z,8.43
2023-05-05T03:15:39.455Z,8.48
2023-05-05T03:17:20.784Z,8.26
2023-05-05T03:19:02.109Z,7.86
2023-05-05T03:20:43.400Z,7.87
2023-05-05T03:22:24.652Z,8.13
2023-05-05T03:24:05.977Z,7.74
2023-05-05T03:25:47.259Z,7.30
2023-05-05T03:27:28.514Z,7.85
2023-05-05T03:29:09.804Z,7.81
2023-05-05T03:30:51.092Z,7.92
2023-05-05T03:32:32.436Z,7.66
2023-05-05T03:34:13.792Z,7.61
2023-05-05T03:35:55.098Z,7.72
2023-05-05T03:37:36.367Z,7.57
2023-05-05T03:39:17.707Z,7.27
2023-05-05T03:40:59.054Z,7.45
2023-05-05T03:42:40.316Z,7.50
2023-05-05T03:44:21.600Z,7.68
2023-05-05T03:46:02.966Z,7.42
2023-05-05T03:47:44.261Z,7.35
2023-05-05T03:49:25.560Z,7.56
2023-05-05T03:51:06.837Z,7.53
2023-05-05T03:52:48.309Z,7.33
2023-05-05T03:54:29.624Z,7.57
2023-05-05T03:56:10.922Z,7.49
2023-05-05T03:57:52.235Z,7.59
2023-05-05T03:59:33.496Z,8.02
2023-05-05T04:01:14.790Z,7.98
2023-05-05T04:02:56.142Z,7.85
2023-05-05T04:04:37.505Z,7.70
2023-05-05T04:06:18.806Z,7.42
2023-05-05T04:08:00.124Z,7.09
2023-05-05T04:09:41.451Z,7.19
2023-05-05T04:11:22.740Z,7.15
2023-05-05T04:13:05.470Z,7.38
2023-05-05T04:14:46.816Z,7.23
2023-05-05T04:16:28.223Z,7.34
2023-05-05T04:18:09.757Z,7.33
2023-05-05T04:19:51.114Z,7.26
2023-05-05T04:21:32.417Z,6.85
2023-05-05T04:23:13.693Z,6.98
2023-05-05T04:24:55.017Z,6.24
2023-05-05T04:26:36.369Z,6.59
2023-05-05T04:28:18.710Z,7.09
2023-05-05T04:30:01.572Z,7.10
2023-05-05T04:31:42.955Z,6.83
2023-05-05T04:33:24.322Z,7.04
2023-05-05T04:35:05.637Z,7.28
2023-05-05T04:36:46.938Z,7.53
2023-05-05T04:38:28.266Z,7.14
2023-05-05T04:40:09.786Z,7.33
2023-05-05T04:41:51.216Z,7.02
2023-05-05T04:43:32.525Z,7.18
2023-05-05T04:45:13.835Z,7.11
2023-05-05T04:46:55.202Z,6.63
2023-05-05T04:48:36.612Z,6.70
2023-05-05T04:50:17.900Z,6.85
2023-05-05T04:51:59.170Z,7.19
2023-05-05T04:53:40.511Z,7.52
2023-05-05T04:55:21.824Z,7.37
2023-05-05T04:57:03.106Z,7.00
2023-05-05T04:58:44.411Z,7.19
2023-05-05T05:00:25.709Z,6.94
2023-05-05T05:02:07.043Z,7.31
2023-05-05T05:03:48.445Z,7.56
2023-05-05T05:05:29.726Z,7.76
2023-05-05T05:07:10.995Z,7.35
2023-05-05T05:08:52.297Z,7.20
2023-05-05T05:10:33.606Z,7.30
2023-05-05T05:12:14.927Z,7.07
2023-05-05T05:13:56.232Z,7.22
2023-05-05T05:15:37.513Z,7.24
2023-05-05T05:17:18.832Z,7.53
2023-05-05T05:19:01.684Z,7.45
2023-05-05T05:20:43.272Z,7.27
2023-05-05T05:22:24.560Z,7.68
2023-05-05T05:24:05.870Z,7.45
2023-05-05T05:25:47.152Z,7.43
2023-05-05T05:27:28.462Z,7.33
2023-05-05T05:29:09.736Z,7.48
2023-05-05T05:30:51.079Z,7.62
2023-05-05T05:32:32.378Z,7.68
2023-05-05T05:34:13.709Z,7.80
2023-05-05T05:35:55.003Z,8.02
2023-05-05T05:37:36.285Z,8.22
2023-05-05T05:39:17.638Z,7.75
2023-05-05T05:40:58.950Z,7.82
2023-05-05T05:42:40.267Z,7.47
2023-05-05T05:44:21.556Z,7.51
2023-05-05T05:46:02.897Z,7.67
2023-05-05T05:47:44.257Z,7.72
2023-05-05T05:49:25.561Z,8.08
2023-05-05T05:51:06.872Z,8.18
2023-05-05T05:52:48.176Z,8.49
2023-05-05T05:54:29.463Z,8.53
2023-05-05T05:56:10.758Z,8.35
2023-05-05T05:57:52.229Z,8.38
2023-05-05T05:59:33.554Z,8.32
2023-05-05T06:01:14.866Z,8.05
2023-05-05T06:02:56.251Z,8.10
2023-05-05T06:04:37.723Z,8.56
2023-05-05T06:06:19.023Z,8.94
2023-05-05T06:08:00.362Z,8.61
2023-05-05T06:09:41.692Z,8.26
2023-05-05T06:11:23.007Z,8.21
2023-05-05T06:13:04.313Z,8.10
2023-05-05T06:14:45.630Z,8.05
2023-05-05T06:16:27.054Z,8.07
2023-05-05T06:18:08.448Z,8.53
2023-05-05T06:19:49.784Z,8.76
2023-05-05T06:21:31.112Z,8.94
2023-05-05T06:23:12.403Z,9.36
2023-05-05T06:24:53.718Z,9.32
2023-05-05T06:26:35.027Z,9.08
2023-05-05T06:28:16.326Z,8.63
2023-05-05T06:29:57.657Z,7.98
2023-05-05T06:31:39.090Z,7.89
2023-05-05T06:33:20.410Z,7.87
2023-05-05T06:35:01.718Z,8.06
2023-05-05T06:36:43.043Z,8.20
2023-05-05T06:38:24.409Z,8.13
2023-05-05T06:40:05.877Z,8.13
2023-05-05T06:41:47.235Z,8.04
2023-05-05T06:43:28.550Z,7.86
2023-05-05T06:45:09.853Z,7.66
2023-05-05T06:46:51.374Z,7.89
2023-05-05T06:48:32.693Z,8.12
2023-05-05T06:50:14.003Z,8.28
2023-05-05T06:51:55.304Z,8.28
2023-05-05T06:53:36.587Z,7.99
2023-05-05T06:55:17.891Z,7.86
2023-05-05T06:56:59.796Z,7.85
2023-05-05T06:58:41.166Z,8.03
2023-05-05T07:00:22.457Z,7.71
2023-05-05T07:02:03.770Z,7.84
2023-05-05T07:03:45.085Z,7.95
2023-05-05T07:05:26.390Z,8.15
2023-05-05T07:07:07.669Z,8.32
2023-05-05T07:08:48.967Z,8.54
2023-05-05T07:10:30.260Z,8.33
2023-05-05T07:12:11.528Z,8.54
2023-05-05T07:13:52.901Z,8.56
2023-05-05T07:15:34.228Z,8.79
2023-05-05T07:17:15.488Z,8.78
2023-05-05T07:18:56.887Z,9.27
2023-05-05T07:20:38.173Z,9.74
2023-05-05T07:22:19.465Z,9.87
2023-05-05T07:24:00.784Z,10.00
2023-05-05T07:25:42.091Z,9.83
2023-05-05T07:27:23.368Z,9.79
2023-05-05T07:29:04.686Z,9.67
2023-05-05T07:30:45.999Z,9.72
2023-05-05T07:32:27.297Z,9.88
2023-05-05T07:34:08.668Z,10.22
2023-05-05T07:35:49.943Z,10.56
2023-05-05T07:37:31.211Z,11.00
2023-05-05T07:39:12.529Z,10.59
2023-05-05T07:40:53.841Z,10.74
2023-05-05T07:42:35.148Z,10.85
2023-05-05T07:44:16.498Z,10.92
2023-05-05T07:45:57.806Z,10.70
2023-05-05T07:47:39.199Z,10.72
2023-05-05T07:49:20.617Z,10.58
2023-05-05T07:51:03.130Z,10.47
2023-05-05T07:52:49.881Z,10.93
2023-05-05T07:54:35.134Z,10.89
2023-05-05T07:56:16.440Z,11.12
2023-05-05T07:57:57.749Z,11.04
2023-05-05T07:59:39.061Z,11.16
2023-05-05T08:01:20.349Z,11.09
2023-05-05T08:03:01.746Z,11.06
2023-05-05T08:04:43.171Z,11.40
2023-05-05T08:06:24.504Z,11.71
2023-05-05T08:08:05.845Z,12.25
2023-05-05T08:09:47.144Z,12.62
2023-05-05T08:11:29.611Z,12.54
2023-05-05T08:13:11.077Z,12.82
2023-05-05T08:14:52.424Z,13.12
2023-05-05T08:16:33.873Z,13.42
2023-05-05T08:18:15.312Z,13.57
2023-05-05T08:19:56.634Z,13.88
2023-05-05T08:21:37.945Z,14.33
2023-05-05T08:23:19.259Z,14.73
2023-05-05T08:25:00.574Z,14.88
2023-05-05T08:26:41.856Z,14.44
2023-05-05T08:28:23.187Z,13.53
2023-05-05T08:30:04.518Z,13.09
2023-05-05T08:31:45.907Z,12.59
2023-05-05T08:33:27.240Z,12.21
2023-05-05T08:35:08.777Z,12.20
2023-05-05T08:36:50.384Z,12.30
2023-05-05T08:38:31.651Z,12.31
2023-05-05T08:40:12.986Z,12.69
2023-05-05T08:41:54.271Z,12.47
2023-05-05T08:43:35.594Z,12.16
2023-05-05T08:45:16.922Z,12.32
2023-05-05T08:46:58.673Z,12.58
2023-05-05T08:48:40.026Z,13.07
2023-05-05T08:50:21.288Z,13.70
2023-05-05T08:52:02.644Z,14.23
2023-05-05T08:53:43.962Z,14.37
2023-05-05T08:55:25.308Z,14.67
2023-05-05T08:57:06.666Z,14.93
2023-05-05T08:58:47.964Z,15.09
2023-05-05T09:00:29.238Z,14.74
2023-05-05T09:02:10.605Z,15.33
2023-05-05T09:03:52.690Z,15.22
2023-05-05T09:05:34.111Z,14.30
2023-05-05T09:07:15.398Z,13.74
2023-05-05T09:08:58.958Z,13.55
2023-05-05T09:10:40.950Z,13.85
2023-05-05T09:12:22.256Z,14.00
2023-05-05T09:14:03.588Z,13.81
2023-05-05T09:15:44.868Z,13.26
2023-05-05T09:17:26.323Z,13.43
2023-05-05T09:19:07.654Z,13.64
2023-05-05T09:20:48.937Z,13.62
2023-05-05T09:22:30.259Z,13.85
2023-05-05T09:24:11.619Z,14.24
2023-05-05T09:25:52.940Z,14.39
2023-05-05T09:27:34.271Z,14.86
2023-05-05T09:29:15.579Z,15.51
2023-05-05T09:30:56.927Z,15.79
2023-05-05T09:32:38.274Z,16.03
2023-05-05T09:34:19.559Z,16.18
2023-05-05T09:36:00.862Z,16.65
2023-05-05T09:37:42.186Z,16.33
2023-05-05T09:39:23.454Z,16.93
2023-05-05T09:41:04.751Z,17.36
2023-05-05T09:42:46.087Z,17.39
2023-05-05T09:44:27.378Z,17.04
2023-05-05T09:46:08.837Z,17.32
2023-05-05T09:47:50.591Z,17.78
2023-05-05T09:49:32.026Z,17.93
2023-05-05T09:51:13.356Z,17.78
2023-05-05T09:52:54.665Z,17.61
2023-05-05T09:54:36.004Z,17.96
2023-05-05T09:56:17.323Z,17.84
2023-05-05T09:57:58.645Z,17.71
2023-05-05T09:59:39.993Z,18.12
2023-05-05T10:01:21.350Z,17.89
2023-05-05T10:03:02.736Z,18.10
2023-05-05T10:04:44.096Z,18.13
2023-05-05T10:06:25.531Z,18.02
2023-05-05T10:08:06.852Z,17.79
2023-05-05T10:09:48.183Z,17.66
2023-05-05T10:11:29.465Z,17.87
2023-05-05T10:13:10.823Z,17.78
2023-05-05T10:14:52.130Z,17.80
2023-05-05T10:16:33.501Z,18.17
2023-05-05T10:18:14.880Z,18.69
2023-05-05T10:19:56.211Z,18.93
2023-05-05T10:21:37.523Z,18.81
2023-05-05T10:23:18.832Z,18.37
2023-05-05T10:25:00.171Z,18.89
2023-05-05T10:26:41.473Z,18.26
2023-05-05T10:28:22.767Z,18.93
2023-05-05T10:30:04.078Z,19.08
2023-05-05T10:31:45.401Z,19.19
2023-05-05T10:33:32.082Z,18.78
2023-05-05T10:35:13.618Z,18.89
2023-05-05T10:36:54.913Z,19.02
2023-05-05T10:38:36.253Z,18.98
2023-05-05T10:40:17.618Z,19.27
2023-05-05T10:41:58.938Z,19.41
2023-05-05T10:43:40.314Z,19.23
2023-05-05T10:45:21.634Z,19.54
2023-05-05T10:47:02.934Z,18.95
2023-05-05T10:48:44.327Z,18.86
2023-05-05T10:50:25.627Z,18.80
2023-05-05T10:52:06.898Z,18.66
2023-05-05T10:53:48.241Z,18.64
2023-05-05T10:55:29.586Z,18.80
2023-05-05T10:57:10.940Z,18.78
2023-05-05T10:58:59.602Z,18.60
2023-05-05T11:00:41.754Z,18.72
2023-05-05T11:02:23.054Z,19.08
2023-05-05T11:04:04.420Z,18.96
2023-05-05T11:05:45.791Z,19.19
2023-05-05T11:07:27.081Z,19.51
2023-05-05T11:09:08.379Z,19.58
2023-05-05T11:10:49.720Z,19.39
2023-05-05T11:12:31.136Z,19.43
2023-05-05T11:14:12.466Z,19.37
2023-05-05T11:15:53.773Z,19.38
2023-05-05T11:17:35.208Z,19.25
2023-05-05T11:19:16.520Z,19.23
2023-05-05T11:20:57.828Z,19.45
2023-05-05T11:22:39.117Z,19.18
2023-05-05T11:24:20.403Z,18.39
2023-05-05T11:26:01.710Z,18.72
2023-05-05T11:27:42.985Z,18.03
2023-05-05T11:29:24.283Z,18.25
2023-05-05T11:31:05.589Z,18.33
2023-05-05T11:32:46.956Z,18.65
2023-05-05T11:34:28.297Z,18.75
2023-05-05T11:36:09.602Z,18.58
2023-05-05T11:37:50.915Z,19.07
2023-05-05T11:39:32.204Z,18.95
2023-05-05T11:41:13.488Z,18.35
2023-05-05T11:42:54.797Z,18.78
2023-05-05T11:44:36.093Z,18.67
2023-05-05T11:46:17.450Z,19.05
2023-05-05T11:47:58.874Z,19.14
2023-05-05T11:49:40.191Z,18.77
2023-05-05T11:51:21.524Z,18.67
2023-05-05T11:53:02.837Z,19.38
2023-05-05T11:54:44.109Z,19.16
2023-05-05T11:56:25.447Z,19.56
2023-05-05T11:58:06.754Z,19.73
2023-05-05T11:59:49.407Z,19.74
2023-05-05T12:01:31.031Z,20.07
2023-05-05T12:03:12.458Z,19.76
2023-05-05T12:04:53.840Z,19.92
2023-05-05T12:06:35.239Z,20.06
2023-05-05T12:08:16.516Z,19.77
2023-05-05T12:09:57.830Z,19.89
2023-05-05T12:11:39.158Z,20.22
2023-05-05T12:13:20.583Z,19.80
2023-05-05T12:15:01.958Z,20.00
2023-05-05T12:16:43.303Z,20.68
2023-05-05T12:18:24.700Z,20.65
2023-05-05T12:20:06.059Z,21.00
2023-05-05T12:21:47.454Z,20.76
2023-05-05T12:23:28.728Z,20.93
2023-05-05T12:25:10.045Z,20.92
2023-05-05T12:26:51.411Z,20.75
2023-05-05T12:28:32.701Z,20.57
2023-05-05T12:30:13.995Z,20.65
2023-05-05T12:31:55.340Z,20.46
2023-05-05T12:33:36.638Z,20.40
2023-05-05T12:35:17.905Z,20.38
2023-05-05T12:36:59.249Z,19.89
2023-05-05T12:38:40.701Z,18.62
2023-05-05T12:40:22.017Z,17.27
2023-05-05T12:42:03.336Z,16.30
2023-05-05T12:43:44.696Z,16.34
2023-05-05T12:45:25.987Z,15.85
2023-05-05T12:47:07.298Z,16.30
2023-05-05T12:48:48.715Z,15.76
2023-05-05T12:50:30.055Z,15.75
2023-05-05T12:52:11.353Z,15.22
2023-05-05T12:53:52.635Z,14.95
2023-05-05T12:55:33.974Z,15.81
2023-05-05T12:57:15.307Z,16.51
2023-05-05T12:58:56.635Z,16.60
2023-05-05T13:00:37.946Z,16.78
2023-05-05T13:02:19.357Z,16.90
2023-05-05T13:04:00.680Z,17.23
2023-05-05T13:05:42.006Z,17.13
2023-05-05T13:07:23.328Z,16.99
2023-05-05T13:09:04.625Z,16.30
2023-05-05T13:10:45.905Z,15.93
2023-05-05T13:12:27.202Z,16.01
2023-05-05T13:14:08.539Z,15.82
2023-05-05T13:15:49.857Z,15.68
2023-05-05T13:17:32.807Z,15.71
2023-05-05T13:19:15.982Z,15.84
2023-05-05T13:20:57.270Z,16.37
2023-05-05T13:22:38.609Z,16.61
2023-05-05T13:24:28.667Z,16.57
2023-05-05T13:26:19.759Z,15.85
2023-05-05T13:28:01.044Z,15.78
2023-05-05T13:29:42.428Z,15.42
2023-05-05T13:31:23.765Z,14.47
2023-05-05T13:33:05.237Z,14.33
2023-05-05T13:34:46.570Z,14.34
2023-05-05T13:36:27.860Z,14.51
2023-05-05T13:38:09.136Z,14.19
2023-05-05T13:39:50.476Z,14.32
2023-05-05T13:41:31.798Z,14.56
2023-05-05T13:43:13.100Z,14.57
2023-05-05T13:44:54.425Z,14.29
2023-05-05T13:46:35.754Z,14.12
2023-05-05T13:48:17.033Z,14.56
2023-05-05T13:49:58.321Z,15.09
2023-05-05T13:51:39.596Z,15.38
2023-05-05T13:53:20.865Z,15.83
2023-05-05T13:55:02.188Z,14.83
2023-05-05T13:56:43.471Z,14.50
2023-05-05T13:58:24.782Z,14.26
2023-05-05T14:00:06.094Z,14.38
2023-05-05T14:01:47.405Z,15.07
2023-05-05T14:03:28.688Z,14.91
2023-05-05T14:05:10.299Z,14.78
2023-05-05T14:06:51.761Z,15.06
2023-05-05T14:08:33.056Z,15.45
2023-05-05T14:10:14.383Z,15.67
2023-05-05T14:11:55.709Z,16.10
2023-05-05T14:13:37.081Z,16.54
2023-05-05T14:15:18.429Z,16.34
2023-05-05T14:16:59.801Z,15.97
2023-05-05T14:18:41.231Z,16.27
2023-05-05T14:20:22.588Z,16.65
2023-05-05T14:22:03.877Z,16.86
2023-05-05T14:23:45.159Z,16.03
2023-05-05T14:25:26.589Z,16.07
2023-05-05T14:27:07.887Z,15.35
2023-05-05T14:28:50.087Z,15.02
2023-05-05T14:30:31.539Z,15.04
2023-05-05T14:32:12.838Z,14.91
2023-05-05T14:33:54.236Z,14.59
2023-05-05T14:35:35.531Z,14.57
2023-05-05T14:37:16.808Z,14.67
2023-05-05T14:38:58.114Z,15.14
2023-05-05T14:40:39.468Z,15.70
2023-05-05T14:42:20.748Z,16.20
2023-05-05T14:44:02.050Z,15.83
2023-05-05T14:45:43.377Z,15.42
2023-05-05T14:47:24.720Z,15.25
2023-05-05T14:49:06.052Z,14.69
2023-05-05T14:50:47.390Z,14.59
2023-05-05T14:52:28.684Z,14.59
2023-05-05T14:54:20.460Z,14.50
2023-05-05T14:56:08.434Z,14.79
2023-05-05T14:57:49.724Z,15.10
2023-05-05T14:59:30.998Z,15.25
2023-05-05T15:01:12.338Z,15.96
2023-05-05T15:02:53.831Z,16.36
2023-05-05T15:04:35.231Z,15.71
2023-05-05T15:06:16.504Z,15.16
2023-05-05T15:07:57.800Z,15.02
2023-05-05T15:09:39.081Z,14.89
2023-05-05T15:11:20.364Z,14.99
2023-05-05T15:13:01.773Z,15.40
2023-05-05T15:14:43.236Z,15.99
2023-05-05T15:16:24.567Z,16.39
2023-05-05T15:18:05.943Z,16.60
2023-05-05T15:19:47.271Z,16.80
2023-05-05T15:21:28.560Z,16.80
2023-05-05T15:23:09.872Z,17.06
2023-05-05T15:24:51.184Z,17.20
2023-05-05T15:26:32.453Z,17.18
2023-05-05T15:28:13.721Z,17.09
2023-05-05T15:29:55.033Z,17.19
2023-05-05T15:31:36.380Z,17.15
2023-05-05T15:33:17.691Z,17.06
2023-05-05T15:34:59.047Z,17.09
2023-05-05T15:36:40.322Z,17.25
2023-05-05T15:38:21.603Z,17.32
2023-05-05T15:40:03.001Z,17.39
2023-05-05T15:41:44.361Z,17.11
2023-05-05T15:43:25.729Z,16.73
2023-05-05T15:45:07.182Z,17.01
2023-05-05T15:46:50.520Z,17.31
2023-05-05T15:48:32.013Z,17.53
2023-05-05T15:50:13.313Z,17.57
2023-05-05T15:51:54.636Z,17.39
2023-05-05T15:53:35.916Z,17.52
2023-05-05T15:55:17.237Z,17.48
2023-05-05T15:56:58.549Z,17.57
2023-05-05T15:58:39.837Z,17.66
2023-05-05T16:00:21.153Z,17.45
2023-05-05T16:02:02.537Z,17.48
2023-05-05T16:03:43.867Z,17.30
2023-05-05T16:05:25.418Z,17.20
2023-05-05T16:07:06.770Z,16.89
2023-05-05T16:08:48.087Z,16.60
2023-05-05T16:10:29.353Z,16.46
2023-05-05T16:12:10.643Z,16.63
2023-05-05T16:13:51.921Z,16.64
2023-05-05T16:15:33.200Z,16.77
2023-05-05T16:17:14.519Z,16.54
2023-05-05T16:18:55.814Z,16.28
2023-05-05T16:20:37.084Z,16.67
2023-05-05T16:22:18.396Z,16.15
2023-05-05T16:24:18.402Z,16.28
2023-05-05T16:25:59.670Z,16.52
2023-05-05T16:27:41.006Z,16.52
2023-05-05T16:29:22.333Z,16.33
2023-05-05T16:31:03.611Z,16.30
2023-05-05T16:32:44.924Z,16.39
2023-05-05T16:34:26.212Z,16.49
2023-05-05T16:36:07.530Z,16.40
2023-05-05T16:37:48.858Z,16.28
2023-05-05T16:39:30.152Z,16.39
2023-05-05T16:41:11.493Z,16.72
2023-05-05T16:42:52.874Z,16.69
2023-05-05T16:44:34.153Z,16.71
2023-05-05T16:46:15.486Z,16.79
2023-05-05T16:47:56.885Z,16.63
2023-05-05T16:49:38.199Z,16.71
2023-05-05T16:51:19.485Z,16.91
2023-05-05T16:53:00.792Z,16.70
2023-05-05T16:54:42.205Z,16.43
2023-05-05T16:56:23.461Z,16.40
2023-05-05T16:58:04.804Z,15.93
2023-05-05T16:59:46.425Z,15.90
2023-05-05T17:01:27.791Z,16.17
2023-05-05T17:03:09.133Z,16.32
2023-05-05T17:04:50.735Z,16.34
2023-05-05T17:06:32.033Z,16.01
2023-05-05T17:08:13.340Z,16.15
2023-05-05T17:09:54.636Z,15.84
2023-05-05T17:11:36.180Z,15.80
2023-05-05T17:13:17.550Z,15.95
2023-05-05T17:14:58.924Z,15.93
2023-05-05T17:16:40.257Z,15.71
2023-05-05T17:18:21.541Z,15.72
2023-05-05T17:20:02.833Z,15.77
2023-05-05T17:21:44.142Z,15.86
2023-05-05T17:23:25.440Z,16.02
2023-05-05T17:25:06.879Z,16.06
2023-05-05T17:26:48.373Z,16.08
2023-05-05T17:28:29.688Z,15.97
2023-05-05T17:30:11.025Z,15.94
2023-05-05T17:31:52.379Z,16.06
2023-05-05T17:33:33.740Z,15.70
2023-05-05T17:35:15.045Z,15.80
2023-05-05T17:36:56.352Z,15.84
2023-05-05T17:38:37.669Z,16.00
2023-05-05T17:40:18.976Z,15.73
2023-05-05T17:42:00.291Z,15.38
2023-05-05T17:43:41.583Z,15.31
2023-05-05T17:45:22.860Z,15.33
2023-05-05T17:47:04.172Z,15.49
2023-05-05T17:48:45.487Z,15.17
2023-05-05T17:50:26.807Z,15.16
2023-05-05T17:52:08.123Z,15.06
2023-05-05T17:53:49.441Z,15.00
2023-05-05T17:55:30.758Z,14.60
2023-05-05T17:57:12.104Z,14.17
2023-05-05T17:58:53.443Z,13.80
2023-05-05T18:00:34.783Z,13.70
2023-05-05T18:02:16.083Z,14.07
2023-05-05T18:03:57.386Z,14.33
2023-05-05T18:05:38.675Z,14.40
2023-05-05T18:07:19.975Z,14.44
2023-05-05T18:09:01.414Z,14.67
2023-05-05T18:10:42.772Z,14.84
2023-05-05T18:12:24.049Z,15.02
2023-05-05T18:14:05.362Z,14.66
2023-05-05T18:15:46.647Z,14.43
2023-05-05T18:17:27.945Z,14.37
2023-05-05T18:19:09.316Z,13.92
2023-05-05T18:20:50.576Z,13.40
2023-05-05T18:22:31.864Z,12.91
2023-05-05T18:24:20.095Z,12.43
2023-05-05T18:26:04.260Z,12.29
2023-05-05T18:27:45.598Z,12.58
2023-05-05T18:29:26.912Z,12.76
2023-05-05T18:31:08.251Z,12.90
2023-05-05T18:32:49.685Z,13.23
2023-05-05T18:34:31.003Z,12.83
2023-05-05T18:36:12.320Z,12.05
2023-05-05T18:37:53.656Z,12.08
2023-05-05T18:39:35.078Z,11.93
2023-05-05T18:41:16.407Z,11.42
2023-05-05T18:42:57.756Z,11.33
2023-05-05T18:44:39.041Z,11.11
2023-05-05T18:46:20.385Z,10.94
2023-05-05T18:48:01.747Z,11.00
2023-05-05T18:49:43.045Z,11.16
2023-05-05T18:51:24.335Z,11.20
2023-05-05T18:53:05.644Z,11.33
2023-05-05T18:54:46.947Z,11.80
2023-05-05T18:56:28.244Z,11.69
2023-05-05T18:58:09.539Z,11.67
2023-05-05T18:59:50.870Z,11.58
2023-05-05T19:01:32.177Z,11.65
2023-05-05T19:03:13.494Z,12.22
2023-05-05T19:04:54.897Z,12.47
2023-05-05T19:06:36.236Z,12.40
2023-05-05T19:08:17.612Z,12.18
2023-05-05T19:09:58.955Z,11.82
2023-05-05T19:11:40.260Z,11.73
2023-05-05T19:13:21.644Z,11.73
2023-05-05T19:15:03.077Z,12.07
2023-05-05T19:16:44.489Z,11.87
2023-05-05T19:18:25.895Z,12.09
2023-05-05T19:20:07.205Z,12.25
2023-05-05T19:21:48.513Z,12.05
2023-05-05T19:23:29.829Z,12.07
2023-05-05T19:25:11.433Z,12.10
2023-05-05T19:26:53.012Z,12.27
2023-05-05T19:28:34.289Z,12.27
2023-05-05T19:30:15.627Z,12.58
2023-05-05T19:31:56.945Z,12.27
2023-05-05T19:33:38.258Z,11.99
2023-05-05T19:35:19.556Z,11.80
2023-05-05T19:37:00.831Z,11.95
2023-05-05T19:38:42.112Z,11.75
2023-05-05T19:40:23.451Z,11.66
2023-05-05T19:42:04.853Z,11.65
2023-05-05T19:43:46.173Z,10.93
2023-05-05T19:45:27.472Z,10.85
2023-05-05T19:47:09.064Z,10.35
2023-05-05T19:48:52.112Z,10.42
2023-05-05T19:50:33.426Z,10.46
2023-05-05T19:52:14.697Z,10.40
2023-05-05T19:53:55.976Z,10.23
2023-05-05T19:55:37.273Z,9.96
2023-05-05T19:57:18.619Z,10.04
2023-05-05T19:58:59.928Z,10.13
2023-05-05T20:00:41.331Z,10.33
2023-05-05T20:02:22.662Z,10.25
2023-05-05T20:04:04.020Z,10.51
2023-05-05T20:05:45.338Z,10.20
2023-05-05T20:07:26.633Z,10.32
2023-05-05T20:09:07.936Z,10.15
2023-05-05T20:10:49.263Z,10.02
2023-05-05T20:12:30.563Z,9.85
2023-05-05T20:14:11.892Z,9.79
2023-05-05T20:15:53.227Z,9.86
2023-05-05T20:17:34.570Z,9.79
2023-05-05T20:19:15.887Z,9.76
2023-05-05T20:20:57.216Z,10.20
2023-05-05T20:22:40.091Z,10.76
2023-05-05T20:24:21.922Z,10.96
2023-05-05T20:26:03.273Z,11.37
2023-05-05T20:27:44.587Z,11.63
2023-05-05T20:29:25.883Z,11.88
2023-05-05T20:31:07.255Z,11.57
2023-05-05T20:32:48.605Z,11.33
2023-05-05T20:34:29.959Z,11.33
2023-05-05T20:36:11.311Z,11.57
2023-05-05T20:37:52.698Z,11.79
2023-05-05T20:39:34.006Z,11.92
2023-05-05T20:41:15.281Z,11.52
2023-05-05T20:42:56.582Z,11.77
2023-05-05T20:44:37.909Z,12.06
2023-05-05T20:46:19.220Z,11.71
2023-05-05T20:48:00.585Z,11.79
2023-05-05T20:49:41.937Z,11.77
2023-05-05T20:51:23.284Z,11.64
2023-05-05T20:53:04.683Z,11.58
2023-05-05T20:54:45.987Z,11.07
2023-05-05T20:56:27.347Z,10.91
2023-05-05T20:58:08.665Z,11.17
2023-05-05T20:59:49.930Z,10.86
2023-05-05T21:01:31.323Z,11.02
2023-05-05T21:03:12.750Z,10.99
2023-05-05T21:04:54.084Z,11.08
2023-05-05T21:06:53.839Z,11.20
2023-05-05T21:08:53.653Z,10.49
2023-05-05T21:10:53.368Z,9.84
2023-05-05T21:12:53.275Z,9.76
2023-05-05T21:14:34.682Z,9.70
2023-05-05T21:16:15.963Z,9.79
2023-05-05T21:17:57.566Z,10.20
2023-05-05T21:19:38.895Z,9.83
2023-05-05T21:21:20.224Z,9.41
2023-05-05T21:23:01.568Z,9.50
2023-05-05T21:24:42.862Z,9.61
2023-05-05T21:26:24.166Z,9.65
2023-05-05T21:28:05.619Z,9.44
2023-05-05T21:29:46.922Z,9.40
2023-05-05T21:31:46.723Z,9.84
2023-05-05T21:33:46.512Z,10.15
2023-05-05T21:35:46.316Z,9.43
2023-05-05T21:37:46.023Z,9.39
2023-05-05T21:39:27.304Z,9.21
2023-05-05T21:41:27.087Z,9.24
2023-05-05T21:43:26.769Z,9.08
2023-05-05T21:45:26.663Z,9.37
2023-05-05T21:47:26.441Z,9.83
2023-05-05T21:49:26.055Z,9.74
2023-05-05T21:51:25.820Z,9.56
2023-05-05T21:53:25.517Z,9.24
2023-05-05T21:55:25.297Z,9.33
2023-05-05T21:57:25.034Z,9.27
2023-05-05T21:59:06.283Z,9.52
2023-05-05T22:00:47.607Z,9.54
2023-05-05T22:02:29.017Z,9.86
2023-05-05T22:04:10.409Z,10.20
2023-05-05T22:05:51.697Z,10.26
2023-05-05T22:07:33.147Z,9.92
2023-05-05T22:09:14.464Z,10.23